ヌクアロファ の空港の天気 - METARとTAF

ファアモツ国際空港 ( NFTF / TBU ) - トンガ ヌクアロファ
飛行場実況気象(Metar)
観測時間01/19 15:00 TOT (01/19 02:00 UTC)
風向・風速北北西 4m/s
視程10km以上
天気現象
全天の4割程度の雲 雲底高度 610m
全天の8割程度の雲 雲底高度 9140m
気温30℃
湿度75%
気圧1012hPa
METARNFTF 190200Z 33008KT 9999 SCT020TCU BKN300 30/25 Q1012
過去の天気等 Google飛行場航空写真 Wunderground天気予報

過去48時間のMETAR

飛行場予報(TAF)
発表時間: 1/19 12:25 TOT (1/18 23:25 UTC)
予報対象時間: 19日13時 TOT ~ 20日13時 TOT
風向・風速北北西 5m/s
視程10km以上
全天の4割程度の雲 雲底高度 550m
19日15時 TOT ~ 19日19時 TOT に 確率 30% で一時的に
視程5000m
天気現象雷雨
全天の8割程度の雲 雲底高度 460m
少しの積乱雲 雲底高度 550m
20日7時 TOT ~ 20日13時 TOT に 確率 30% で一時的に
視程5000m
天気現象雷雨
全天の8割程度の雲 雲底高度 460m
少しの積乱雲 雲底高度 550m
TAF NFTF 182325Z 1900/1924 34009KT 9999 SCT018
PROB30 TEMPO 1902/1906 5000 TSRA BKN015 FEW018CB
PROB30 TEMPO 1918/1924 5000 TSRA BKN015 FEW018CB